createdAt,value
2018-12-30T00:00:48.952Z,91.30
2018-12-30T00:01:48.960Z,92.13
2018-12-30T00:02:48.932Z,92.74
2018-12-30T00:03:48.932Z,91.92
2018-12-30T00:04:49.775Z,92.13
2018-12-30T00:05:48.899Z,92.74
2018-12-30T00:06:48.890Z,92.44
2018-12-30T00:07:48.878Z,92.33
2018-12-30T00:08:48.865Z,92.64
2018-12-30T00:09:48.873Z,92.64
2018-12-30T00:10:48.899Z,92.23
2018-12-30T00:11:48.834Z,91.92
2018-12-30T00:12:48.827Z,92.23
2018-12-30T00:13:48.817Z,92.33
2018-12-30T00:14:48.822Z,92.44
2018-12-30T00:15:48.794Z,92.74
2018-12-30T00:16:48.780Z,92.64
2018-12-30T00:17:48.769Z,92.44
2018-12-30T00:18:48.766Z,92.64
2018-12-30T00:19:48.802Z,92.54
2018-12-30T00:20:48.751Z,92.33
2018-12-30T00:21:48.726Z,92.74
2018-12-30T00:22:48.772Z,92.54
2018-12-30T00:23:48.704Z,92.44
2018-12-30T00:24:48.703Z,92.64
2018-12-30T00:25:48.680Z,92.54
2018-12-30T00:26:48.670Z,92.64
2018-12-30T00:27:48.659Z,92.33
2018-12-30T00:28:48.672Z,92.64
2018-12-30T00:29:48.648Z,92.64
2018-12-30T00:30:48.628Z,92.64
2018-12-30T00:31:48.617Z,92.44
2018-12-30T00:32:48.609Z,92.95
2018-12-30T00:33:48.609Z,92.95
2018-12-30T00:34:48.616Z,92.50
2018-12-30T00:35:48.581Z,92.44
2018-12-30T00:36:48.564Z,92.40
2018-12-30T00:37:48.557Z,92.50
2018-12-30T00:38:48.541Z,92.80
2018-12-30T00:39:48.535Z,92.29
2018-12-30T00:40:48.533Z,92.50
2018-12-30T00:41:48.513Z,92.40
2018-12-30T00:42:48.498Z,92.91
2018-12-30T00:43:48.491Z,92.70
2018-12-30T00:44:48.478Z,92.80
2018-12-30T00:45:48.479Z,92.91
2018-12-30T00:46:48.457Z,92.80
2018-12-30T00:47:48.447Z,92.91
2018-12-30T00:48:48.436Z,92.80
2018-12-30T00:49:48.425Z,92.50
2018-12-30T00:50:48.424Z,92.76
2018-12-30T00:51:48.402Z,92.86
2018-12-30T00:52:48.392Z,92.97
2018-12-30T00:53:48.383Z,92.86
2018-12-30T00:54:48.373Z,93.43
2018-12-30T00:55:48.372Z,94.00
2018-12-30T00:56:48.352Z,92.97
2018-12-30T00:57:48.338Z,93.49
2018-12-30T00:58:48.339Z,93.90
2018-12-30T00:59:48.317Z,93.18
2018-12-30T01:00:48.319Z,93.69
2018-12-30T01:01:48.299Z,93.79
2018-12-30T01:02:48.284Z,93.59
2018-12-30T01:03:48.279Z,93.59
2018-12-30T01:04:48.294Z,94.10
2018-12-30T01:05:48.270Z,93.79
2018-12-30T01:06:48.244Z,93.90
2018-12-30T01:07:48.234Z,94.00
2018-12-30T01:08:48.823Z,94.31
2018-12-30T01:09:48.209Z,94.00
2018-12-30T01:10:48.216Z,93.90
2018-12-30T01:11:48.241Z,94.62
2018-12-30T01:12:48.182Z,94.00
2018-12-30T01:13:48.171Z,94.10
2018-12-30T01:14:48.156Z,94.72
2018-12-30T01:15:48.180Z,94.72
2018-12-30T01:16:48.139Z,94.52
2018-12-30T01:17:48.129Z,94.82
2018-12-30T01:18:48.119Z,94.72
2018-12-30T01:19:48.105Z,94.62
2018-12-30T01:20:48.095Z,94.72
2018-12-30T01:21:48.094Z,94.72
2018-12-30T01:22:48.068Z,94.93
2018-12-30T01:23:48.059Z,94.72
2018-12-30T01:24:48.048Z,94.62
2018-12-30T01:25:48.036Z,94.72
2018-12-30T01:26:48.039Z,94.72
2018-12-30T01:27:48.016Z,94.21
2018-12-30T01:28:48.005Z,94.17
2018-12-30T01:29:48.000Z,94.17
2018-12-30T01:30:47.987Z,94.68
2018-12-30T01:31:56.836Z,94.78
2018-12-30T01:32:47.962Z,93.34
2018-12-30T01:33:47.951Z,93.85
2018-12-30T01:34:47.944Z,94.47
2018-12-30T01:35:47.928Z,94.78
2018-12-30T01:36:47.928Z,94.06
2018-12-30T01:37:47.906Z,93.96
2018-12-30T01:44:38.733Z,93.85
2018-12-30T01:45:38.710Z,93.96
2018-12-30T01:46:38.717Z,94.57
2018-12-30T01:47:38.704Z,94.32
2018-12-30T01:48:38.678Z,94.57
2018-12-30T01:49:38.667Z,94.53
2018-12-30T01:50:38.660Z,94.23
2018-12-30T01:51:38.645Z,94.57
2018-12-30T01:52:38.656Z,94.74
2018-12-30T01:53:38.624Z,93.96
2018-12-30T01:54:38.612Z,94.64
2018-12-30T01:55:38.607Z,94.74
2018-12-30T01:56:38.591Z,94.64
2018-12-30T01:57:38.591Z,94.23
2018-12-30T01:58:38.569Z,94.95
2018-12-30T01:59:38.561Z,94.53
2018-12-30T02:00:38.548Z,93.81
2018-12-30T02:01:38.541Z,94.84
2018-12-30T02:02:38.536Z,94.74
2018-12-30T02:03:38.515Z,94.43
2018-12-30T02:04:38.507Z,94.43
2018-12-30T02:05:38.495Z,94.74
2018-12-30T02:06:38.483Z,94.32
2018-12-30T02:07:38.513Z,94.53
2018-12-30T02:08:38.473Z,94.64
2018-12-30T02:09:38.458Z,94.64
2018-12-30T02:10:38.439Z,94.84
2018-12-30T02:11:38.427Z,93.81
2018-12-30T02:12:38.416Z,94.53
2018-12-30T02:13:38.425Z,93.91
2018-12-30T02:14:38.401Z,93.91
2018-12-30T02:15:38.383Z,93.91
2018-12-30T02:16:38.375Z,94.02
2018-12-30T02:17:38.363Z,94.12
2018-12-30T02:18:38.365Z,94.64
2018-12-30T02:19:38.339Z,94.43
2018-12-30T02:20:38.329Z,94.53
2018-12-30T02:21:41.255Z,94.53
2018-12-30T02:22:38.310Z,94.32
2018-12-30T02:23:38.315Z,94.74
2018-12-30T02:24:38.289Z,94.74
2018-12-30T02:25:38.275Z,94.53
2018-12-30T02:26:38.273Z,94.32
2018-12-30T02:27:38.254Z,94.43
2018-12-30T02:28:38.255Z,94.43
2018-12-30T02:29:38.230Z,94.64
2018-12-30T02:30:38.233Z,94.90
2018-12-30T02:31:38.216Z,94.74
2018-12-30T02:32:38.198Z,94.53
2018-12-30T02:33:38.218Z,93.77
2018-12-30T02:34:38.179Z,93.77
2018-12-30T02:35:38.168Z,94.49
2018-12-30T02:36:38.167Z,94.49
2018-12-30T02:37:38.150Z,94.38
2018-12-30T02:38:38.133Z,94.28
2018-12-30T02:39:38.183Z,94.18
2018-12-30T02:40:38.111Z,94.90
2018-12-30T02:41:38.214Z,94.49
2018-12-30T02:42:38.091Z,94.84
2018-12-30T02:43:38.085Z,95.00
2018-12-30T02:44:38.078Z,95.52
2018-12-30T02:45:38.056Z,95.21
2018-12-30T02:46:38.045Z,95.36
2018-12-30T02:47:38.035Z,94.38
2018-12-30T02:48:38.034Z,94.28
2018-12-30T02:49:38.028Z,94.70
2018-12-30T02:50:38.022Z,95.83
2018-12-30T02:51:37.993Z,94.59
2018-12-30T02:52:38.011Z,94.90
2018-12-30T02:53:37.968Z,94.80
2018-12-30T02:54:37.975Z,94.80
2018-12-30T02:55:37.949Z,95.73
2018-12-30T02:56:37.938Z,95.10
2018-12-30T02:57:37.927Z,94.90
2018-12-30T02:58:37.918Z,94.59
2018-12-30T02:59:37.915Z,94.80
2018-12-30T03:00:37.897Z,94.49
2018-12-30T03:01:37.884Z,93.77
2018-12-30T03:02:37.875Z,95.00
2018-12-30T03:03:37.862Z,95.10
2018-12-30T03:04:37.881Z,94.90
2018-12-30T03:05:37.847Z,95.42
2018-12-30T03:06:37.830Z,94.80
2018-12-30T03:07:37.819Z,95.93
2018-12-30T03:08:37.806Z,95.00
2018-12-30T03:09:37.797Z,94.80
2018-12-30T03:10:37.804Z,95.00
2018-12-30T03:11:37.797Z,95.42
2018-12-30T03:12:37.764Z,95.21
2018-12-30T03:13:37.752Z,95.73
2018-12-30T03:14:37.740Z,94.80
2018-12-30T03:15:37.741Z,95.68
2018-12-30T03:16:37.720Z,94.65
2018-12-30T03:17:37.716Z,94.76
2018-12-30T03:18:37.698Z,95.78
2018-12-30T03:19:37.687Z,95.68
2018-12-30T03:20:37.686Z,94.65
2018-12-30T03:21:37.671Z,95.17
2018-12-30T03:22:37.662Z,94.76
2018-12-30T03:23:37.650Z,94.55
2018-12-30T03:24:37.635Z,94.65
2018-12-30T03:25:37.642Z,95.37
2018-12-30T03:26:37.615Z,95.37
2018-12-30T03:27:37.599Z,95.58
2018-12-30T03:28:37.600Z,94.55
2018-12-30T03:29:37.578Z,94.65
2018-12-30T03:30:37.583Z,95.78
2018-12-30T03:31:37.561Z,94.55
2018-12-30T03:32:37.549Z,94.76
2018-12-30T03:33:37.536Z,94.76
2018-12-30T03:34:37.529Z,95.37
2018-12-30T03:35:37.523Z,95.78
2018-12-30T03:36:37.501Z,95.43
2018-12-30T03:37:37.492Z,95.23
2018-12-30T03:38:37.482Z,95.43
2018-12-30T03:39:37.468Z,94.71
2018-12-30T03:40:37.478Z,94.71
2018-12-30T03:41:37.451Z,94.71
2018-12-30T03:42:37.435Z,95.23
2018-12-30T03:43:37.425Z,95.64
2018-12-30T03:44:37.417Z,95.53
2018-12-30T03:45:37.445Z,95.23
2018-12-30T03:46:37.394Z,95.27
2018-12-30T03:47:37.380Z,95.33
2018-12-30T03:48:37.371Z,95.74
2018-12-30T03:49:37.365Z,95.64
2018-12-30T03:50:37.351Z,95.53
2018-12-30T03:51:37.359Z,95.02
2018-12-30T03:52:37.325Z,94.51
2018-12-30T03:53:37.318Z,94.81
2018-12-30T03:54:37.305Z,94.71
2018-12-30T03:55:37.294Z,95.74
2018-12-30T03:56:37.295Z,94.92
2018-12-30T03:57:37.271Z,95.53
2018-12-30T03:58:37.262Z,95.12
2018-12-30T03:59:37.251Z,95.12
2018-12-30T04:00:37.239Z,95.02
2018-12-30T04:01:37.239Z,95.43
2018-12-30T04:02:37.222Z,95.64
2018-12-30T04:03:37.206Z,95.64
2018-12-30T04:04:37.195Z,95.33
2018-12-30T04:05:37.192Z,95.53
2018-12-30T04:06:37.196Z,95.74
2018-12-30T04:07:37.167Z,95.84
2018-12-30T04:08:37.151Z,95.64
2018-12-30T04:09:37.140Z,95.43
2018-12-30T04:10:37.131Z,95.84
2018-12-30T04:11:37.132Z,95.33
2018-12-30T04:12:37.109Z,94.71
2018-12-30T04:13:37.098Z,94.71
2018-12-30T04:14:37.089Z,95.49
2018-12-30T04:15:37.082Z,94.81
2018-12-30T04:16:37.077Z,94.67
2018-12-30T04:17:37.059Z,94.77
2018-12-30T04:18:37.042Z,94.87
2018-12-30T04:19:37.049Z,94.87
2018-12-30T04:20:37.024Z,94.67
2018-12-30T04:21:37.053Z,94.87
2018-12-30T04:22:37.005Z,95.39
2018-12-30T04:23:36.992Z,95.28
2018-12-30T04:24:36.989Z,95.59
2018-12-30T04:25:36.967Z,94.67
2018-12-30T04:26:36.957Z,95.70
2018-12-30T04:27:36.958Z,94.36
2018-12-30T04:28:36.938Z,94.67
2018-12-30T04:29:36.924Z,94.67
2018-12-30T04:30:36.948Z,94.36
2018-12-30T04:31:36.904Z,94.56
2018-12-30T04:32:36.905Z,94.67
2018-12-30T04:33:36.879Z,94.77
2018-12-30T04:34:36.872Z,95.28
2018-12-30T04:35:36.860Z,94.62
2018-12-30T04:36:36.857Z,94.21
2018-12-30T04:37:36.850Z,94.36
2018-12-30T04:38:36.827Z,94.67
2018-12-30T04:39:36.815Z,94.77
2018-12-30T04:40:36.804Z,94.62
2018-12-30T04:41:36.800Z,94.52
2018-12-30T04:42:36.797Z,94.62
2018-12-30T04:43:36.770Z,94.73
2018-12-30T04:44:36.760Z,95.75
2018-12-30T04:45:36.749Z,95.45
2018-12-30T04:46:36.738Z,95.59
2018-12-30T04:47:36.751Z,94.93
2018-12-30T04:48:36.715Z,94.31
2018-12-30T04:49:36.706Z,94.87
2018-12-30T04:50:36.706Z,94.52
2018-12-30T04:51:36.685Z,94.52
2018-12-30T04:52:36.682Z,95.24
2018-12-30T04:53:36.669Z,95.24
2018-12-30T04:54:36.653Z,95.45
2018-12-30T04:55:36.680Z,94.11
2018-12-30T04:56:36.628Z,94.42
2018-12-30T04:57:36.634Z,94.93
2018-12-30T04:58:36.618Z,94.52
2018-12-30T04:59:36.598Z,94.52
2018-12-30T05:00:36.584Z,93.80
2018-12-30T05:01:36.573Z,94.31
2018-12-30T05:02:36.576Z,93.70
2018-12-30T05:03:36.553Z,94.31
2018-12-30T05:04:36.546Z,94.42
2018-12-30T05:05:36.529Z,94.27
2018-12-30T05:06:36.523Z,94.58
2018-12-30T05:07:36.545Z,94.21
2018-12-30T05:08:36.497Z,93.90
2018-12-30T05:09:36.487Z,94.21
2018-12-30T05:10:36.484Z,94.48
2018-12-30T05:11:36.467Z,94.52
2018-12-30T05:12:36.454Z,94.52
2018-12-30T05:13:36.456Z,94.01
2018-12-30T05:14:36.438Z,94.11
2018-12-30T05:15:36.421Z,94.73
2018-12-30T05:16:36.411Z,94.21
2018-12-30T05:17:36.404Z,94.58
2018-12-30T05:18:36.401Z,94.58
2018-12-30T05:19:36.379Z,94.83
2018-12-30T05:20:36.369Z,94.62
2018-12-30T05:21:36.363Z,94.68
2018-12-30T05:22:36.348Z,93.55
2018-12-30T05:23:36.344Z,93.80
2018-12-30T05:24:36.323Z,93.59
2018-12-30T05:25:36.313Z,94.01
2018-12-30T05:26:36.304Z,93.65
2018-12-30T05:27:36.297Z,92.97
2018-12-30T05:28:36.289Z,93.49
2018-12-30T05:29:36.267Z,93.65
2018-12-30T05:30:36.257Z,92.52
2018-12-30T05:31:36.247Z,92.25
2018-12-30T05:32:36.237Z,92.52
2018-12-30T05:33:36.239Z,92.67
2018-12-30T05:34:36.214Z,92.46
2018-12-30T05:35:36.205Z,92.57
2018-12-30T05:36:36.191Z,92.67
2018-12-30T05:37:36.183Z,92.11
2018-12-30T05:38:36.187Z,91.74
2018-12-30T05:39:36.159Z,92.05
2018-12-30T05:40:36.148Z,91.85
2018-12-30T05:41:36.137Z,91.64
2018-12-30T05:42:36.125Z,91.60
2018-12-30T05:43:36.157Z,91.23
2018-12-30T05:44:36.107Z,91.44
2018-12-30T05:45:36.094Z,91.02
2018-12-30T05:46:36.090Z,90.61
2018-12-30T05:47:36.074Z,91.13
2018-12-30T05:48:37.820Z,90.51
2018-12-30T05:49:36.049Z,91.33
2018-12-30T05:50:36.038Z,91.23
2018-12-30T05:51:36.032Z,91.33
2018-12-30T05:52:41.769Z,91.23
2018-12-30T05:53:37.036Z,91.13
2018-12-30T05:54:35.995Z,90.72
2018-12-30T05:55:35.986Z,90.92
2018-12-30T05:56:35.974Z,91.13
2018-12-30T05:57:35.964Z,91.33
2018-12-30T05:58:35.952Z,90.72
2018-12-30T05:59:35.954Z,90.55
2018-12-30T06:00:35.933Z,90.51
2018-12-30T06:01:35.916Z,90.51
2018-12-30T06:02:35.906Z,90.41
2018-12-30T06:03:35.896Z,89.79
2018-12-30T06:04:35.895Z,90.24
2018-12-30T06:05:35.872Z,90.34
2018-12-30T06:06:35.864Z,89.38
2018-12-30T06:07:35.871Z,89.94
2018-12-30T06:08:35.840Z,89.83
2018-12-30T06:09:35.840Z,89.22
2018-12-30T06:10:35.818Z,89.62
2018-12-30T06:11:35.808Z,89.42
2018-12-30T06:12:35.800Z,90.24
2018-12-30T06:13:35.784Z,89.52
2018-12-30T06:14:35.784Z,89.94
2018-12-30T06:15:35.763Z,89.62
2018-12-30T06:16:35.752Z,90.14
2018-12-30T06:17:35.747Z,89.52
2018-12-30T06:18:35.731Z,90.03
2018-12-30T06:19:36.008Z,90.24
2018-12-30T06:20:35.708Z,89.31
2018-12-30T06:21:35.699Z,89.62
2018-12-30T06:22:35.686Z,89.94
2018-12-30T06:23:35.678Z,89.73
2018-12-30T06:24:35.665Z,89.42
2018-12-30T06:25:35.665Z,89.22
2018-12-30T06:26:35.643Z,89.01
2018-12-30T06:27:35.630Z,89.52
2018-12-30T06:28:35.623Z,88.80
2018-12-30T06:29:35.609Z,88.84
2018-12-30T06:30:35.611Z,89.01
2018-12-30T06:31:35.588Z,88.70
2018-12-30T06:32:35.576Z,89.01
2018-12-30T06:33:35.565Z,88.49
2018-12-30T06:34:35.565Z,88.90
2018-12-30T06:35:35.563Z,88.70
2018-12-30T06:36:35.533Z,89.11
2018-12-30T06:37:35.527Z,89.01
2018-12-30T06:38:35.512Z,87.92
2018-12-30T06:39:35.501Z,88.59
2018-12-30T06:40:35.505Z,89.05
2018-12-30T06:41:35.533Z,89.05
2018-12-30T06:42:35.470Z,89.15
2018-12-30T06:43:35.455Z,88.95
2018-12-30T06:44:35.450Z,88.95
2018-12-30T06:45:35.444Z,88.64
2018-12-30T06:46:35.422Z,88.64
2018-12-30T06:47:35.415Z,89.25
2018-12-30T06:48:35.407Z,88.95
2018-12-30T06:49:35.391Z,88.84
2018-12-30T06:50:35.398Z,89.05
2018-12-30T06:51:35.368Z,88.95
2018-12-30T06:52:35.363Z,88.74
2018-12-30T06:53:35.347Z,88.84
2018-12-30T06:54:35.336Z,89.05
2018-12-30T06:55:35.336Z,88.95
2018-12-30T06:56:35.313Z,88.33
2018-12-30T06:57:35.306Z,88.74
2018-12-30T06:58:35.293Z,88.53
2018-12-30T06:59:35.284Z,87.92
2018-12-30T07:00:35.598Z,88.33
2018-12-30T07:01:35.259Z,88.23
2018-12-30T07:02:35.252Z,88.12
2018-12-30T07:03:35.239Z,88.23
2018-12-30T07:04:35.227Z,88.53
2018-12-30T07:05:35.216Z,87.81
2018-12-30T07:06:35.216Z,88.06
2018-12-30T07:07:35.195Z,87.54
2018-12-30T07:08:35.186Z,87.85
2018-12-30T07:09:35.172Z,87.24
2018-12-30T07:10:35.163Z,88.26
2018-12-30T07:11:35.162Z,88.26
2018-12-30T07:12:35.140Z,87.24
2018-12-30T07:13:35.130Z,87.34
2018-12-30T07:14:35.124Z,87.24
2018-12-30T07:15:35.107Z,87.03
2018-12-30T07:16:35.109Z,86.72
2018-12-30T07:17:35.089Z,86.41
2018-12-30T07:18:35.074Z,86.61
2018-12-30T07:19:35.067Z,86.82
2018-12-30T07:20:35.053Z,86.52
2018-12-30T07:21:35.053Z,86.00
2018-12-30T07:22:35.036Z,85.79
2018-12-30T07:23:35.061Z,86.00
2018-12-30T07:24:35.008Z,85.38
2018-12-30T07:25:34.999Z,84.70
2018-12-30T07:26:35.016Z,83.15
2018-12-30T07:27:34.975Z,83.56
2018-12-30T07:28:35.053Z,83.77
2018-12-30T07:29:34.955Z,83.26
2018-12-30T07:30:34.946Z,83.56
2018-12-30T07:31:34.948Z,84.59
2018-12-30T07:32:34.925Z,84.59
2018-12-30T07:33:34.909Z,84.49
2018-12-30T07:34:34.899Z,84.49
2018-12-30T07:35:34.895Z,84.19
2018-12-30T07:36:34.912Z,84.80
2018-12-30T07:37:34.867Z,85.83
2018-12-30T07:38:34.857Z,84.19
2018-12-30T07:39:34.846Z,84.39
2018-12-30T07:40:34.837Z,84.12
2018-12-30T07:41:34.823Z,83.67
2018-12-30T07:42:34.826Z,83.87
2018-12-30T07:43:34.800Z,84.22
2018-12-30T07:44:34.796Z,83.29
2018-12-30T07:45:34.870Z,84.43
2018-12-30T07:46:34.773Z,84.29
2018-12-30T07:47:34.771Z,83.36
2018-12-30T07:48:34.751Z,82.06
2018-12-30T07:49:34.738Z,82.98
2018-12-30T07:50:44.017Z,83.29
2018-12-30T07:51:34.715Z,84.19
2018-12-30T07:52:34.722Z,82.98
2018-12-30T07:53:34.695Z,83.09
2018-12-30T07:54:34.682Z,82.37
2018-12-30T07:55:34.676Z,81.85
2018-12-30T07:56:34.677Z,82.26
2018-12-30T07:57:34.664Z,82.16
2018-12-30T07:58:34.639Z,82.26
2018-12-30T07:59:34.634Z,81.85
2018-12-30T08:00:34.620Z,81.96
2018-12-30T08:01:34.614Z,82.26
2018-12-30T08:02:34.645Z,82.26
2018-12-30T08:03:34.589Z,82.26
2018-12-30T08:04:34.578Z,81.75
2018-12-30T08:05:34.561Z,81.44
2018-12-30T08:06:34.554Z,83.19
2018-12-30T08:07:34.544Z,82.78
2018-12-30T08:08:34.547Z,82.47
2018-12-30T08:09:34.519Z,82.16
2018-12-30T08:10:34.534Z,82.06
2018-12-30T08:11:34.500Z,82.06
2018-12-30T08:12:34.496Z,83.09
2018-12-30T08:13:34.501Z,82.89
2018-12-30T08:14:34.469Z,81.85
2018-12-30T08:15:34.466Z,82.06
2018-12-30T08:16:34.448Z,82.47
2018-12-30T08:17:34.436Z,82.89
2018-12-30T08:18:34.431Z,82.06
2018-12-30T08:19:34.414Z,81.85
2018-12-30T08:20:34.403Z,80.82
2018-12-30T08:21:34.402Z,80.72
2018-12-30T08:22:34.376Z,80.93
2018-12-30T08:23:34.381Z,81.65
2018-12-30T08:24:34.361Z,81.75
2018-12-30T08:25:34.350Z,82.30
2018-12-30T08:26:34.337Z,81.68
2018-12-30T08:27:34.332Z,81.68
2018-12-30T08:28:34.328Z,82.10
2018-12-30T08:29:34.301Z,81.89
2018-12-30T08:30:34.293Z,81.79
2018-12-30T08:31:34.279Z,82.20
2018-12-30T08:32:34.268Z,82.20
2018-12-30T08:33:34.270Z,82.40
2018-12-30T08:34:34.249Z,82.40
2018-12-30T08:35:34.934Z,82.10
2018-12-30T08:36:34.235Z,82.71
2018-12-30T08:37:34.222Z,83.13
2018-12-30T08:38:34.242Z,81.68
2018-12-30T08:39:34.191Z,81.17
2018-12-30T08:40:34.180Z,82.10
2018-12-30T08:41:34.175Z,82.30
2018-12-30T08:42:34.165Z,81.79
2018-12-30T08:43:34.147Z,81.79
2018-12-30T08:44:34.147Z,81.89
2018-12-30T08:45:34.131Z,82.30
2018-12-30T08:46:34.124Z,81.75
2018-12-30T08:47:34.112Z,81.17
2018-12-30T08:48:34.107Z,82.10
2018-12-30T08:49:34.099Z,81.89
2018-12-30T08:50:34.075Z,81.37
2018-12-30T08:51:34.061Z,81.17
2018-12-30T08:52:34.053Z,81.89
2018-12-30T08:53:34.041Z,81.58
2018-12-30T08:54:35.003Z,82.10
2018-12-30T08:55:34.021Z,81.07
2018-12-30T08:56:34.027Z,81.79
2018-12-30T08:57:34.005Z,81.17
2018-12-30T08:58:33.985Z,80.96
2018-12-30T08:59:33.990Z,81.68
2018-12-30T09:00:33.968Z,81.79
2018-12-30T09:01:33.955Z,81.07
2018-12-30T09:02:33.945Z,81.27
2018-12-30T09:03:33.935Z,81.79
2018-12-30T09:04:33.934Z,81.89
2018-12-30T09:05:33.919Z,81.58
2018-12-30T09:06:33.904Z,81.37
2018-12-30T09:07:33.891Z,81.17
2018-12-30T09:08:33.880Z,81.68
2018-12-30T09:09:34.057Z,81.48
2018-12-30T09:10:33.864Z,80.44
2018-12-30T09:11:33.862Z,80.86
2018-12-30T09:12:33.838Z,81.58
2018-12-30T09:13:33.829Z,80.55
2018-12-30T09:14:33.881Z,79.93
2018-12-30T09:15:33.814Z,80.04
2018-12-30T09:16:34.518Z,80.76
2018-12-30T09:17:33.802Z,81.48
2018-12-30T09:18:34.516Z,81.68
2018-12-30T09:19:33.765Z,82.20
2018-12-30T09:20:33.774Z,80.86
2018-12-30T09:21:33.742Z,81.07
2018-12-30T09:22:33.747Z,80.55
2018-12-30T09:23:37.447Z,80.55
2018-12-30T09:24:33.709Z,80.55
2018-12-30T09:25:33.710Z,81.79
2018-12-30T09:26:33.690Z,80.65
2018-12-30T09:27:33.677Z,80.86
2018-12-30T09:28:33.927Z,81.48
2018-12-30T09:29:35.510Z,81.13
2018-12-30T09:30:34.513Z,81.03
2018-12-30T09:31:33.903Z,80.82
2018-12-30T09:32:33.625Z,80.65
2018-12-30T09:33:34.523Z,80.96
2018-12-30T09:34:36.030Z,79.27
2018-12-30T09:35:37.061Z,79.41
2018-12-30T09:36:33.581Z,80.76
2018-12-30T09:37:35.029Z,80.96
2018-12-30T09:38:34.503Z,81.89
2018-12-30T09:39:33.550Z,80.55
2018-12-30T09:40:33.553Z,81.17
2018-12-30T09:41:33.547Z,80.65
2018-12-30T09:42:33.513Z,80.14
2018-12-30T09:43:33.507Z,80.65
2018-12-30T09:44:39.507Z,80.62
2018-12-30T09:45:34.505Z,80.34
2018-12-30T09:46:33.513Z,80.34
2018-12-30T09:47:33.459Z,81.23
2018-12-30T09:48:33.867Z,80.51
2018-12-30T09:49:33.514Z,80.41
2018-12-30T09:50:35.319Z,80.93
2018-12-30T09:51:33.420Z,80.30
2018-12-30T09:52:35.005Z,80.51
2018-12-30T09:53:34.004Z,80.62
2018-12-30T09:54:33.400Z,79.58
2018-12-30T09:55:33.377Z,80.20
2018-12-30T09:56:33.495Z,79.58
2018-12-30T09:57:33.458Z,79.58
2018-12-30T09:58:33.340Z,78.66
2018-12-30T09:59:33.330Z,78.86
2018-12-30T10:00:34.746Z,78.86
2018-12-30T10:01:33.567Z,80.00
2018-12-30T10:02:33.341Z,78.24
2018-12-30T10:03:34.037Z,78.14
2018-12-30T10:04:33.280Z,78.86
2018-12-30T10:05:33.334Z,77.94
2018-12-30T10:06:34.049Z,79.34
2018-12-30T10:07:35.200Z,78.21
2018-12-30T10:08:34.012Z,80.16
2018-12-30T10:09:34.017Z,80.06
2018-12-30T10:10:33.237Z,79.55
2018-12-30T10:11:35.672Z,79.55
2018-12-30T10:12:33.208Z,78.41
2018-12-30T10:13:33.175Z,77.80
2018-12-30T10:14:33.169Z,77.28
2018-12-30T10:15:33.174Z,77.48
2018-12-30T10:16:33.148Z,78.93
2018-12-30T10:17:33.195Z,78.00
2018-12-30T10:18:33.124Z,78.83
2018-12-30T10:19:33.115Z,78.21
2018-12-30T10:20:33.110Z,77.18
2018-12-30T10:21:33.092Z,77.69
2018-12-30T10:22:33.135Z,78.00
2018-12-30T10:23:33.066Z,77.08
2018-12-30T10:24:33.055Z,77.08
2018-12-30T10:25:33.046Z,77.90
2018-12-30T10:26:33.040Z,78.21
2018-12-30T10:27:33.062Z,76.97
2018-12-30T10:28:33.014Z,77.80
2018-12-30T10:29:33.046Z,77.59
2018-12-30T10:30:32.993Z,78.00
2018-12-30T10:31:32.990Z,76.35
2018-12-30T10:32:32.987Z,75.39
2018-12-30T10:33:32.966Z,76.42
2018-12-30T10:34:32.947Z,76.83
2018-12-30T10:35:32.938Z,76.73
2018-12-30T10:36:32.924Z,75.90
2018-12-30T10:37:32.935Z,76.73
2018-12-30T10:38:32.933Z,76.83
2018-12-30T10:39:32.891Z,75.81
2018-12-30T10:40:32.895Z,78.28
2018-12-30T10:41:32.869Z,77.76
2018-12-30T10:42:32.885Z,76.79
2018-12-30T10:43:32.851Z,77.31
2018-12-30T10:44:32.848Z,76.53
2018-12-30T10:45:32.830Z,76.18
2018-12-30T10:46:32.822Z,75.87
2018-12-30T10:47:32.818Z,76.83
2018-12-30T10:48:32.791Z,76.83
2018-12-30T10:49:32.784Z,76.53
2018-12-30T10:50:32.778Z,76.70
2018-12-30T10:51:32.758Z,75.25
2018-12-30T10:52:32.769Z,76.90
2018-12-30T10:53:32.739Z,76.11
2018-12-30T10:54:32.728Z,76.39
2018-12-30T10:55:32.741Z,76.07
2018-12-30T10:56:32.710Z,76.07
2018-12-30T10:57:33.079Z,76.39
2018-12-30T10:58:32.713Z,75.97
2018-12-30T10:59:32.676Z,76.79
2018-12-30T11:00:42.058Z,77.00
2018-12-30T11:01:42.094Z,75.97
2018-12-30T11:02:42.662Z,76.90
2018-12-30T11:03:32.643Z,76.97
2018-12-30T11:04:32.634Z,75.01
2018-12-30T11:05:32.603Z,76.76
2018-12-30T11:06:32.591Z,76.66
2018-12-30T11:07:32.583Z,75.84
2018-12-30T11:08:41.138Z,76.07
2018-12-30T11:09:32.571Z,77.00
2018-12-30T11:10:32.546Z,76.07
2018-12-30T11:11:32.541Z,76.18
2018-12-30T11:12:32.524Z,76.49
2018-12-30T11:13:32.529Z,77.38
2018-12-30T11:14:32.501Z,76.90
2018-12-30T11:15:32.491Z,77.83
2018-12-30T11:16:32.479Z,76.86
2018-12-30T11:17:32.478Z,77.58
2018-12-30T11:18:32.484Z,76.97
2018-12-30T11:19:32.456Z,76.25
2018-12-30T11:20:32.434Z,78.00
2018-12-30T11:21:32.427Z,77.07
2018-12-30T11:22:32.416Z,76.86
2018-12-30T11:23:32.425Z,76.97
2018-12-30T11:24:32.531Z,75.32
2018-12-30T11:25:32.380Z,76.35
2018-12-30T11:26:32.371Z,76.97
2018-12-30T11:27:32.368Z,76.97
2018-12-30T11:28:32.362Z,76.59
2018-12-30T11:29:32.338Z,76.56
2018-12-30T11:30:32.329Z,75.73
2018-12-30T11:31:32.319Z,76.56
2018-12-30T11:32:32.306Z,76.04
2018-12-30T11:33:32.307Z,77.07
2018-12-30T11:34:32.286Z,76.97
2018-12-30T11:35:32.272Z,76.14
2018-12-30T11:36:32.265Z,75.22
2018-12-30T11:37:32.249Z,76.35
2018-12-30T11:38:32.265Z,74.91
2018-12-30T11:39:32.230Z,75.32
2018-12-30T11:40:32.225Z,75.46
2018-12-30T11:41:32.206Z,76.49
2018-12-30T11:42:32.194Z,77.21
2018-12-30T11:43:32.199Z,75.97
2018-12-30T11:44:32.172Z,76.18
2018-12-30T11:45:32.170Z,76.79
2018-12-30T11:46:32.175Z,76.39
2018-12-30T11:47:32.141Z,77.00
2018-12-30T11:48:32.146Z,76.39
2018-12-30T11:49:32.133Z,76.28
2018-12-30T11:50:32.107Z,76.70
2018-12-30T11:51:32.099Z,76.49
2018-12-30T11:52:32.088Z,74.95
2018-12-30T11:53:32.090Z,77.11
2018-12-30T11:54:32.063Z,76.79
2018-12-30T11:55:32.053Z,76.70
2018-12-30T11:56:32.054Z,76.49
2018-12-30T11:57:32.040Z,76.70
2018-12-30T11:58:32.038Z,76.90
2018-12-30T11:59:32.010Z,76.90
2018-12-30T12:00:31.999Z,76.49
2018-12-30T12:01:31.988Z,76.79
2018-12-30T12:02:31.984Z,76.70
2018-12-30T12:03:31.982Z,77.72
2018-12-30T12:04:31.954Z,78.14
2018-12-30T12:05:31.949Z,76.70
2018-12-30T12:06:31.933Z,76.79
2018-12-30T12:07:31.922Z,77.72
2018-12-30T12:08:31.938Z,76.79
2018-12-30T12:09:31.907Z,77.72
2018-12-30T12:10:31.889Z,77.93
2018-12-30T12:11:31.880Z,76.28
2018-12-30T12:12:31.868Z,77.00
2018-12-30T12:13:31.871Z,78.03
2018-12-30T12:14:31.854Z,77.83
2018-12-30T12:15:31.834Z,77.07
2018-12-30T12:16:31.824Z,76.76
2018-12-30T12:17:31.814Z,77.93
2018-12-30T12:18:31.825Z,77.11
2018-12-30T12:19:31.796Z,77.28
2018-12-30T12:20:31.785Z,77.21
2018-12-30T12:21:31.779Z,77.93
2018-12-30T12:22:31.764Z,77.89
2018-12-30T12:23:31.763Z,78.10
2018-12-30T12:24:31.736Z,77.89
2018-12-30T12:25:31.732Z,78.00
2018-12-30T12:26:31.719Z,77.69
2018-12-30T12:27:31.744Z,78.00
2018-12-30T12:28:31.708Z,77.89
2018-12-30T12:29:31.682Z,77.79
2018-12-30T12:30:31.676Z,78.00
2018-12-30T12:31:31.661Z,76.97
2018-12-30T12:32:31.648Z,78.00
2018-12-30T12:33:31.696Z,76.97
2018-12-30T12:34:31.626Z,76.66
2018-12-30T12:35:31.617Z,77.17
2018-12-30T12:36:31.619Z,77.38
2018-12-30T12:37:31.610Z,77.07
2018-12-30T12:38:31.597Z,76.66
2018-12-30T12:39:31.576Z,76.56
2018-12-30T12:40:31.565Z,76.97
2018-12-30T12:41:31.553Z,77.89
2018-12-30T12:42:31.545Z,77.89
2018-12-30T12:43:31.554Z,77.28
2018-12-30T12:44:31.521Z,78.00
2018-12-30T12:45:31.509Z,77.89
2018-12-30T12:46:31.499Z,78.10
2018-12-30T12:47:31.514Z,77.69
2018-12-30T12:48:31.488Z,77.89
2018-12-30T12:49:31.462Z,77.79
2018-12-30T12:50:31.453Z,78.10
2018-12-30T12:51:31.445Z,77.17
2018-12-30T12:52:31.431Z,77.58
2018-12-30T12:53:31.434Z,76.97
2018-12-30T12:54:32.229Z,78.10
2018-12-30T12:55:31.511Z,77.17
2018-12-30T12:56:31.389Z,77.79
2018-12-30T12:57:31.375Z,77.79
2018-12-30T12:58:31.457Z,76.76